Northsea Beta — 9HA2594 — position and weather

sailwx.info

Track history (hours):
 
Tides and Currents Weather Stations Pressure Air Temp Water Temp Dewpoint Dewpoint Depression Visibility Wind Speed Wind Dir Waves Ship Positions

Northsea Beta

Last reported at 2015-Mar-05 21:17 UTC. Time now 2015-Mar-06 07:37 UTC.
Position N 50°43' E 000°48'.

Length 110 m; draft 6.8 m.

Type: Ship (hazmat cat B). MMSI: 248970000.

Date/timePositionNaut miles runAvg speedWind from/ knotsBaromVisibWave heightAir tempDewpointWater temp
2015-Mar-05 21:17N 50°43' E 000°48'2110.9
2015-Mar-05 19:22N 50°57' E 001°13'1412.9
2015-Mar-05 18:20N 51°05' E 001°30'912.1
2015-Mar-05 17:33N 51°12' E 001°41'1110.8
2015-Mar-05 16:33N 51°20' E 001°51'10 9.8
2015-Mar-05 15:34N 51°28' E 001°60'9 9.0
2015-Mar-05 14:31N 51°35' E 002°10'50 9.4
2015-Mar-05 09:09N 52°02' E 003°19'1811.1
2015-Mar-05 07:32N 52°03' E 003°48'8 8.0
2015-Mar-05 06:33N 52°01' E 004°00'1212.2
2015-Mar-05 05:33N 51°54' E 004°17'2 1.6
2015-Mar-05 04:32N 51°53' E 004°18'0 0.0
2015-Mar-05 03:26N 51°53' E 004°18'0 0.0
2015-Mar-05 01:26N 51°53' E 004°18'0 0.0
2015-Mar-05 00:32N 51°53' E 004°18'0 0.0
2015-Mar-04 23:32N 51°53' E 004°18'0 0.0
2015-Mar-04 22:32N 51°53' E 004°18'0 0.0
2015-Mar-04 21:23N 51°53' E 004°18'1 1.5
2015-Mar-04 20:34N 51°54' E 004°17'8 8.0
2015-Mar-04 19:34N 51°59' E 004°07'3 2.4
2015-Mar-04 18:22N 51°58' E 004°02'0 0.0
2015-Mar-04 17:16N 51°58' E 004°02'0 0.0
2015-Mar-04 16:28N 51°58' E 004°02'0 0.0
2015-Mar-04 15:22N 51°58' E 004°02'0 0.0
2015-Mar-04 13:31N 51°58' E 004°02'0 0.0
2015-Mar-04 11:19N 51°58' E 004°02'0 0.0
2015-Mar-04 07:31N 51°58' E 004°02'0 0.0
2015-Mar-04 00:20N 51°58' E 004°02'0 0.0
2015-Mar-03 23:33N 51°58' E 004°02'2 1.6
2015-Mar-03 22:33N 51°59' E 004°03'10 8.4
2015-Mar-03 21:20N 51°59' E 003°47'3 3.9
2015-Mar-03 20:29N 51°56' E 003°47'0 0.0
2015-Mar-03 18:05N 51°56' E 003°47'0 0.0
2015-Mar-03 17:32N 51°56' E 003°47'3 2.6
2015-Mar-03 16:30N 51°57' E 003°43'24 0.9
2015-Mar-02 12:29N 51°36' E 003°23'910.1
2015-Mar-02 11:34N 51°28' E 003°31'8 7.8
2015-Mar-02 10:33N 51°25' E 003°42'5 4.3
2015-Mar-02 09:20N 51°21' E 003°46'0 0.0
2015-Mar-02 08:32N 51°21' E 003°46'0 0.0
2015-Mar-02 07:32N 51°21' E 003°46'0 0.0
2015-Mar-02 06:32N 51°21' E 003°46'0 0.0
2015-Mar-02 05:14N 51°21' E 003°46'0 0.0
2015-Mar-02 04:29N 51°21' E 003°46'0 0.0
2015-Mar-02 03:29N 51°21' E 003°46'0 0.0
2015-Mar-02 02:32N 51°21' E 003°46'0 0.0
2015-Mar-02 01:32N 51°21' E 003°46'0 0.0
2015-Mar-02 00:29N 51°21' E 003°46'0 0.0
2015-Mar-01 23:29N 51°21' E 003°46'0 0.0
2015-Mar-01 22:32N 51°21' E 003°46'0 0.0
2015-Mar-01 21:29N 51°21' E 003°46'0 0.0
2015-Mar-01 20:29N 51°21' E 003°46'0 0.0
2015-Mar-01 19:23N 51°21' E 003°46'0 0.0
2015-Mar-01 18:29N 51°21' E 003°46'0 0.0
2015-Mar-01 17:26N 51°21' E 003°46'0 0.0
2015-Mar-01 16:29N 51°21' E 003°46'0 0.0
2015-Mar-01 15:32N 51°21' E 003°46'0 0.0
2015-Mar-01 14:29N 51°21' E 003°46'0 0.0
2015-Mar-01 13:29N 51°21' E 003°46'0 0.0
2015-Mar-01 11:20N 51°21' E 003°46'0 0.0
2015-Mar-01 10:29N 51°21' E 003°46'0 0.0
2015-Mar-01 09:11N 51°21' E 003°46'0 0.0
2015-Mar-01 08:29N 51°21' E 003°46'0 0.0
2015-Mar-01 07:32N 51°21' E 003°46'0 0.0
2015-Mar-01 06:26N 51°21' E 003°46'0 0.0
2015-Mar-01 05:08N 51°21' E 003°46'0 0.0
2015-Mar-01 03:05N 51°21' E 003°46'0 0.0
2015-Mar-01 01:31N 51°21' E 003°46'0 0.0
2015-Mar-01 00:33N 51°21' E 003°46'2 1.6
2015-Feb-28 23:33N 51°22' E 003°44'8 7.6
2015-Feb-28 22:33N 51°26' E 003°34'2311.3
2015-Feb-28 20:33N 51°23' E 002°58'10 9.8
2015-Feb-28 19:33N 51°22' E 002°42'7 6.7
2015-Feb-28 18:32N 51°22' E 002°31'20 9.9
2015-Feb-28 16:31N 51°12' E 002°04'1010.2
2015-Feb-28 15:33N 51°08' E 001°49'10 9.9
2015-Feb-28 14:34N 51°01' E 001°37'  
2015-Feb-23 23:20N 38°44' W 009°57'6 7.4
2015-Feb-23 22:33N 38°38' W 009°55'10 7.8
2015-Feb-23 21:19N 38°29' W 009°53'  
Track history (hours):
 
Tides and Currents Weather Stations Pressure Air Temp Water Temp Dewpoint Dewpoint Depression Visibility Wind Speed Wind Dir Waves Ship Positions

Northsea Beta

Last reported at 2015-Mar-05 21:17 UTC. Time now 2015-Mar-06 07:37 UTC.
Position N 50°43' E 000°48'.

Length 110 m; draft 6.8 m.

Type: Ship (hazmat cat B). MMSI: 248970000.

Date/timePositionNaut miles runAvg speedWind from/ knotsBaromVisibWave heightAir tempDewpointWater temp
2015-Mar-05 21:17N 50°43' E 000°48'2110.9
2015-Mar-05 19:22N 50°57' E 001°13'1412.9
2015-Mar-05 18:20N 51°05' E 001°30'912.1
2015-Mar-05 17:33N 51°12' E 001°41'1110.8
2015-Mar-05 16:33N 51°20' E 001°51'10 9.8
2015-Mar-05 15:34N 51°28' E 001°60'9 9.0
2015-Mar-05 14:31N 51°35' E 002°10'50 9.4
2015-Mar-05 09:09N 52°02' E 003°19'1811.1
2015-Mar-05 07:32N 52°03' E 003°48'8 8.0
2015-Mar-05 06:33N 52°01' E 004°00'1212.2
2015-Mar-05 05:33N 51°54' E 004°17'2 1.6
2015-Mar-05 04:32N 51°53' E 004°18'0 0.0
2015-Mar-05 03:26N 51°53' E 004°18'0 0.0
2015-Mar-05 01:26N 51°53' E 004°18'0 0.0
2015-Mar-05 00:32N 51°53' E 004°18'0 0.0
2015-Mar-04 23:32N 51°53' E 004°18'0 0.0
2015-Mar-04 22:32N 51°53' E 004°18'0 0.0
2015-Mar-04 21:23N 51°53' E 004°18'1 1.5
2015-Mar-04 20:34N 51°54' E 004°17'8 8.0
2015-Mar-04 19:34N 51°59' E 004°07'3 2.4
2015-Mar-04 18:22N 51°58' E 004°02'0 0.0
2015-Mar-04 17:16N 51°58' E 004°02'0 0.0
2015-Mar-04 16:28N 51°58' E 004°02'0 0.0
2015-Mar-04 15:22N 51°58' E 004°02'0 0.0
2015-Mar-04 13:31N 51°58' E 004°02'0 0.0
2015-Mar-04 11:19N 51°58' E 004°02'0 0.0
2015-Mar-04 07:31N 51°58' E 004°02'0 0.0
2015-Mar-04 00:20N 51°58' E 004°02'0 0.0
2015-Mar-03 23:33N 51°58' E 004°02'2 1.6
2015-Mar-03 22:33N 51°59' E 004°03'10 8.4
2015-Mar-03 21:20N 51°59' E 003°47'3 3.9
2015-Mar-03 20:29N 51°56' E 003°47'0 0.0
2015-Mar-03 18:05N 51°56' E 003°47'0 0.0
2015-Mar-03 17:32N 51°56' E 003°47'3 2.6
2015-Mar-03 16:30N 51°57' E 003°43'24 0.9
2015-Mar-02 12:29N 51°36' E 003°23'910.1
2015-Mar-02 11:34N 51°28' E 003°31'8 7.8
2015-Mar-02 10:33N 51°25' E 003°42'5 4.3
2015-Mar-02 09:20N 51°21' E 003°46'0 0.0
2015-Mar-02 08:32N 51°21' E 003°46'0 0.0
2015-Mar-02 07:32N 51°21' E 003°46'0 0.0
2015-Mar-02 06:32N 51°21' E 003°46'0 0.0
2015-Mar-02 05:14N 51°21' E 003°46'0 0.0
2015-Mar-02 04:29N 51°21' E 003°46'0 0.0
2015-Mar-02 03:29N 51°21' E 003°46'0 0.0
2015-Mar-02 02:32N 51°21' E 003°46'0 0.0
2015-Mar-02 01:32N 51°21' E 003°46'0 0.0
2015-Mar-02 00:29N 51°21' E 003°46'0 0.0
2015-Mar-01 23:29N 51°21' E 003°46'0 0.0
2015-Mar-01 22:32N 51°21' E 003°46'0 0.0
2015-Mar-01 21:29N 51°21' E 003°46'0 0.0
2015-Mar-01 20:29N 51°21' E 003°46'0 0.0
2015-Mar-01 19:23N 51°21' E 003°46'0 0.0
2015-Mar-01 18:29N 51°21' E 003°46'0 0.0
2015-Mar-01 17:26N 51°21' E 003°46'0 0.0
2015-Mar-01 16:29N 51°21' E 003°46'0 0.0
2015-Mar-01 15:32N 51°21' E 003°46'0 0.0
2015-Mar-01 14:29N 51°21' E 003°46'0 0.0
2015-Mar-01 13:29N 51°21' E 003°46'0 0.0
2015-Mar-01 11:20N 51°21' E 003°46'0 0.0
2015-Mar-01 10:29N 51°21' E 003°46'0 0.0
2015-Mar-01 09:11N 51°21' E 003°46'0 0.0
2015-Mar-01 08:29N 51°21' E 003°46'0 0.0
2015-Mar-01 07:32N 51°21' E 003°46'0 0.0
2015-Mar-01 06:26N 51°21' E 003°46'0 0.0
2015-Mar-01 05:08N 51°21' E 003°46'0 0.0
2015-Mar-01 03:05N 51°21' E 003°46'0 0.0
2015-Mar-01 01:31N 51°21' E 003°46'0 0.0
2015-Mar-01 00:33N 51°21' E 003°46'2 1.6
2015-Feb-28 23:33N 51°22' E 003°44'8 7.6
2015-Feb-28 22:33N 51°26' E 003°34'2311.3
2015-Feb-28 20:33N 51°23' E 002°58'10 9.8
2015-Feb-28 19:33N 51°22' E 002°42'7 6.7
2015-Feb-28 18:32N 51°22' E 002°31'20 9.9
2015-Feb-28 16:31N 51°12' E 002°04'1010.2
2015-Feb-28 15:33N 51°08' E 001°49'10 9.9
2015-Feb-28 14:34N 51°01' E 001°37'  
2015-Feb-23 23:20N 38°44' W 009°57'6 7.4
2015-Feb-23 22:33N 38°38' W 009°55'10 7.8
2015-Feb-23 21:19N 38°29' W 009°53'  

Dump ship's entire track history